createdAt,value
2023-01-19T00:01:28.266Z,3.04
2023-01-19T00:03:56.672Z,2.99
2023-01-19T00:06:25.240Z,2.98
2023-01-19T00:08:53.754Z,3.07
2023-01-19T00:11:23.471Z,3.04
2023-01-19T00:13:53.111Z,3.03
2023-01-19T00:16:23.475Z,2.96
2023-01-19T00:18:55.789Z,3.01
2023-01-19T00:21:24.781Z,3.05
2023-01-19T00:23:54.070Z,3.05
2023-01-19T00:26:23.968Z,2.95
2023-01-19T00:28:53.690Z,2.94
2023-01-19T00:31:23.104Z,2.98
2023-01-19T00:33:53.497Z,2.93
2023-01-19T00:36:22.444Z,2.87
2023-01-19T00:38:59.945Z,2.80
2023-01-19T00:42:01.899Z,2.63
2023-01-19T00:44:57.454Z,2.54
2023-01-19T00:47:30.720Z,2.54
2023-01-19T00:50:02.682Z,2.50
2023-01-19T00:52:32.559Z,2.40
2023-01-19T00:55:01.969Z,2.30
2023-01-19T00:57:30.463Z,2.41
2023-01-19T00:59:59.463Z,2.52
2023-01-19T01:02:29.557Z,2.56
2023-01-19T01:05:03.063Z,2.49
2023-01-19T01:07:35.553Z,2.45
2023-01-19T01:10:04.547Z,2.46
2023-01-19T01:12:35.273Z,2.38
2023-01-19T01:15:07.011Z,2.36
2023-01-19T01:17:47.253Z,2.46
2023-01-19T01:20:20.765Z,2.43
2023-01-19T01:22:52.883Z,2.41
2023-01-19T01:25:24.066Z,2.37
2023-01-19T01:27:53.119Z,2.31
2023-01-19T01:30:22.834Z,2.33
2023-01-19T01:32:51.569Z,2.26
2023-01-19T01:35:21.995Z,2.26
2023-01-19T01:37:51.324Z,2.20
2023-01-19T01:40:23.895Z,2.27
2023-01-19T01:42:56.311Z,2.19
2023-01-19T01:45:33.947Z,2.24
2023-01-19T01:48:07.844Z,2.18
2023-01-19T01:51:01.661Z,2.18
2023-01-19T01:53:34.514Z,1.99
2023-01-19T01:56:07.009Z,1.97
2023-01-19T01:58:37.409Z,1.82
2023-01-19T02:01:24.611Z,2.00
2023-01-19T02:03:55.666Z,1.98
2023-01-19T02:06:27.999Z,1.82
2023-01-19T02:09:17.863Z,1.86
2023-01-19T02:12:05.855Z,1.94
2023-01-19T02:14:38.244Z,1.94
2023-01-19T02:17:09.592Z,1.92
2023-01-19T02:19:43.000Z,1.98
2023-01-19T02:22:18.504Z,1.98
2023-01-19T02:24:50.073Z,2.02
2023-01-19T02:27:19.667Z,1.99
2023-01-19T02:29:49.906Z,2.06
2023-01-19T02:32:18.562Z,2.09
2023-01-19T02:34:47.087Z,2.06
2023-01-19T02:37:20.391Z,2.03
2023-01-19T02:39:55.732Z,1.97
2023-01-19T02:42:34.557Z,1.82
2023-01-19T02:45:07.087Z,1.85
2023-01-19T02:47:56.983Z,1.83
2023-01-19T02:50:42.153Z,1.75
2023-01-19T02:53:37.504Z,1.80
2023-01-19T02:56:23.567Z,1.76
2023-01-19T02:58:59.895Z,1.76
2023-01-19T03:01:50.957Z,1.68
2023-01-19T03:04:29.984Z,1.72
2023-01-19T03:07:05.817Z,1.63
2023-01-19T03:09:41.970Z,1.74
2023-01-19T03:12:23.596Z,1.82
2023-01-19T03:14:55.627Z,1.81
2023-01-19T03:17:25.516Z,1.84
2023-01-19T03:19:55.481Z,1.90
2023-01-19T03:22:34.428Z,1.90
2023-01-19T03:25:04.995Z,1.92
2023-01-19T03:28:19.377Z,1.80
2023-01-19T03:31:05.817Z,1.72
2023-01-19T03:34:01.243Z,1.69
2023-01-19T03:36:35.814Z,1.76
2023-01-19T03:39:11.654Z,1.72
2023-01-19T03:41:42.809Z,1.81
2023-01-19T03:44:13.771Z,1.87
2023-01-19T03:46:44.621Z,1.84
2023-01-19T03:49:13.191Z,1.92
2023-01-19T03:51:42.276Z,1.87
2023-01-19T03:54:11.767Z,1.91
2023-01-19T03:56:40.425Z,1.95
2023-01-19T03:59:08.750Z,1.90
2023-01-19T04:01:38.466Z,1.95
2023-01-19T04:04:06.719Z,1.87
2023-01-19T04:06:34.903Z,1.94
2023-01-19T04:09:03.000Z,1.90
2023-01-19T04:11:32.373Z,1.95
2023-01-19T04:14:00.537Z,1.91
2023-01-19T04:16:29.389Z,1.96
2023-01-19T04:18:59.199Z,1.97
2023-01-19T04:21:27.536Z,1.99
2023-01-19T04:23:55.911Z,2.03
2023-01-19T04:26:25.060Z,2.03
2023-01-19T04:28:56.144Z,2.03
2023-01-19T04:31:24.644Z,2.06
2023-01-19T04:33:53.091Z,2.09
2023-01-19T04:36:23.114Z,2.15
2023-01-19T04:38:51.635Z,2.13
2023-01-19T04:41:20.206Z,2.15
2023-01-19T04:43:48.972Z,2.12
2023-01-19T04:46:17.501Z,2.16
2023-01-19T04:48:45.787Z,2.16
2023-01-19T04:51:13.932Z,2.11
2023-01-19T04:53:43.528Z,2.13
2023-01-19T04:56:11.604Z,2.11
2023-01-19T04:58:39.870Z,2.17
2023-01-19T05:01:11.199Z,2.18
2023-01-19T05:03:40.398Z,2.13
2023-01-19T05:06:08.734Z,2.13
2023-01-19T05:08:37.104Z,2.13
2023-01-19T05:11:06.986Z,2.17
2023-01-19T05:13:35.182Z,2.17
2023-01-19T05:16:04.009Z,2.17
2023-01-19T05:18:36.136Z,2.17
2023-01-19T05:21:04.478Z,2.10
2023-01-19T05:23:32.975Z,2.16
2023-01-19T05:26:02.590Z,2.03
2023-01-19T05:28:34.000Z,2.09
2023-01-19T05:31:02.228Z,2.08
2023-01-19T05:33:30.387Z,2.18
2023-01-19T05:35:58.636Z,2.15
2023-01-19T05:38:35.378Z,2.26
2023-01-19T05:41:03.829Z,2.32
2023-01-19T05:43:33.414Z,2.32
2023-01-19T05:46:01.654Z,2.37
2023-01-19T05:48:29.866Z,2.42
2023-01-19T05:51:01.704Z,2.44
2023-01-19T05:53:30.384Z,2.43
2023-01-19T05:56:01.782Z,2.39
2023-01-19T05:58:30.039Z,2.45
2023-01-19T06:01:03.573Z,2.41
2023-01-19T06:03:31.837Z,2.40
2023-01-19T06:06:00.440Z,2.39
2023-01-19T06:08:28.802Z,2.41
2023-01-19T06:10:57.049Z,2.39
2023-01-19T06:13:25.269Z,2.45
2023-01-19T06:16:00.367Z,2.44
2023-01-19T06:18:29.143Z,2.46
2023-01-19T06:20:59.890Z,2.42
2023-01-19T06:23:28.871Z,2.41
2023-01-19T06:25:58.892Z,2.37
2023-01-19T06:28:27.164Z,2.32
2023-01-19T06:30:56.946Z,2.32
2023-01-19T06:33:28.068Z,2.27
2023-01-19T06:35:56.257Z,2.29
2023-01-19T06:38:24.538Z,2.21
2023-01-19T06:40:58.766Z,2.26
2023-01-19T06:43:27.789Z,2.23
2023-01-19T06:45:56.604Z,2.20
2023-01-19T06:48:26.590Z,2.15
2023-01-19T06:50:58.697Z,2.11
2023-01-19T06:53:30.406Z,2.13
2023-01-19T06:56:02.857Z,2.10
2023-01-19T06:58:33.928Z,2.06
2023-01-19T07:01:03.042Z,1.98
2023-01-19T07:03:33.411Z,1.89
2023-01-19T07:06:02.542Z,1.91
2023-01-19T07:08:30.933Z,2.00
2023-01-19T07:11:26.057Z,2.03
2023-01-19T07:13:51.832Z,2.03
2023-01-19T07:16:20.067Z,1.98
2023-01-19T07:18:51.103Z,2.05
2023-01-19T07:21:19.793Z,2.03
2023-01-19T07:23:52.447Z,1.97
2023-01-19T07:26:21.808Z,2.05
2023-01-19T07:28:50.321Z,2.06
2023-01-19T07:31:19.302Z,2.13
2023-01-19T07:33:50.208Z,2.20
2023-01-19T07:36:18.251Z,2.23
2023-01-19T07:38:46.232Z,2.26
2023-01-19T07:41:14.572Z,2.32
2023-01-19T07:43:42.570Z,2.32
2023-01-19T07:46:10.728Z,2.32
2023-01-19T07:48:38.948Z,2.32
2023-01-19T07:51:13.087Z,2.24
2023-01-19T07:53:42.120Z,2.31
2023-01-19T07:56:10.909Z,2.29
2023-01-19T07:58:39.217Z,2.27
2023-01-19T08:01:08.774Z,2.20
2023-01-19T08:03:36.934Z,2.26
2023-01-19T08:06:05.630Z,2.22
2023-01-19T08:08:36.182Z,2.18
2023-01-19T08:11:04.354Z,2.17
2023-01-19T08:13:32.401Z,2.14
2023-01-19T08:16:00.609Z,2.18
2023-01-19T08:18:29.047Z,2.15
2023-01-19T08:20:57.102Z,2.16
2023-01-19T08:23:25.591Z,2.20
2023-01-19T08:25:55.781Z,2.19
2023-01-19T08:28:24.024Z,2.14
2023-01-19T08:30:56.023Z,2.14
2023-01-19T08:33:25.713Z,2.14
2023-01-19T08:35:55.090Z,2.26
2023-01-19T08:38:23.511Z,2.28
2023-01-19T08:40:52.272Z,2.33
2023-01-19T08:43:21.894Z,2.46
2023-01-19T08:45:53.220Z,2.46
2023-01-19T08:48:23.667Z,2.52
2023-01-19T08:50:53.052Z,2.48
2023-01-19T08:53:23.764Z,2.50
2023-01-19T08:55:55.450Z,2.43
2023-01-19T08:58:25.473Z,2.35
2023-01-19T09:00:54.017Z,2.38
2023-01-19T09:03:23.141Z,2.47
2023-01-19T09:05:51.734Z,2.50
2023-01-19T09:08:19.870Z,2.55
2023-01-19T09:10:50.665Z,2.63
2023-01-19T09:13:20.214Z,2.65
2023-01-19T09:15:50.007Z,2.70
2023-01-19T09:18:20.148Z,2.77
2023-01-19T09:20:50.886Z,2.76
2023-01-19T09:23:21.125Z,2.84
2023-01-19T09:25:51.791Z,2.89
2023-01-19T09:28:19.901Z,2.83
2023-01-19T09:30:49.849Z,2.93
2023-01-19T09:33:19.277Z,2.90
2023-01-19T09:35:49.248Z,2.99
2023-01-19T09:38:18.449Z,2.95
2023-01-19T09:40:49.779Z,3.05
2023-01-19T09:43:26.781Z,3.12
2023-01-19T09:45:59.488Z,3.23
2023-01-19T09:48:40.559Z,3.22
2023-01-19T09:51:13.756Z,3.12
2023-01-19T09:53:52.631Z,3.31
2023-01-19T09:56:22.084Z,3.39
2023-01-19T09:58:52.273Z,3.50
2023-01-19T10:01:42.226Z,3.52
2023-01-19T10:04:29.916Z,3.60
2023-01-19T10:07:10.297Z,3.52
2023-01-19T10:09:50.703Z,3.65
2023-01-19T10:12:37.121Z,3.75
2023-01-19T10:15:15.795Z,3.83
2023-01-19T10:17:57.522Z,3.83
2023-01-19T10:20:33.131Z,3.91
2023-01-19T10:23:03.121Z,4.00
2023-01-19T10:25:32.468Z,4.04
2023-01-19T10:28:02.303Z,4.07
2023-01-19T10:30:31.075Z,4.11
2023-01-19T10:33:01.546Z,4.21
2023-01-19T10:35:31.492Z,4.26
2023-01-19T10:38:03.329Z,4.35
2023-01-19T10:40:38.226Z,4.36
2023-01-19T10:43:37.332Z,4.36
2023-01-19T10:46:08.110Z,4.41
2023-01-19T10:48:42.923Z,4.52
2023-01-19T10:51:12.669Z,4.57
2023-01-19T10:53:45.391Z,4.58
2023-01-19T10:56:17.796Z,4.59
2023-01-19T10:58:46.089Z,4.49
2023-01-19T11:01:18.131Z,4.49
2023-01-19T11:03:49.105Z,4.59
2023-01-19T11:06:24.229Z,4.55
2023-01-19T11:08:54.216Z,4.56
2023-01-19T11:11:30.951Z,4.63
2023-01-19T11:14:12.756Z,4.71
2023-01-19T11:16:41.873Z,4.61
2023-01-19T11:19:24.897Z,4.55
2023-01-19T11:22:00.961Z,4.57
2023-01-19T11:24:33.417Z,4.50
2023-01-19T11:30:10.715Z,4.42
2023-01-19T11:32:41.001Z,4.45
2023-01-19T11:35:39.353Z,4.55
2023-01-19T11:38:19.926Z,4.67
2023-01-19T11:40:58.392Z,4.63
2023-01-19T11:46:16.173Z,4.75
2023-01-19T11:48:53.659Z,4.80
2023-01-19T11:51:32.175Z,4.88
2023-01-19T11:54:01.782Z,4.90
2023-01-19T11:56:30.874Z,4.81
2023-01-19T11:59:01.124Z,4.94
2023-01-19T12:01:37.144Z,5.01
2023-01-19T12:04:25.373Z,4.98
2023-01-19T12:06:58.107Z,5.06
2023-01-19T12:09:30.029Z,4.91
2023-01-19T12:12:04.444Z,5.08
2023-01-19T12:14:40.717Z,5.00
2023-01-19T12:17:23.402Z,4.96
2023-01-19T12:19:55.926Z,4.94
2023-01-19T12:22:29.073Z,4.95
2023-01-19T12:25:07.113Z,5.06
2023-01-19T12:27:41.567Z,4.93
2023-01-19T12:30:21.404Z,4.97
2023-01-19T12:32:51.334Z,5.07
2023-01-19T12:35:55.037Z,5.23
2023-01-19T12:38:37.883Z,5.28
2023-01-19T12:41:29.964Z,5.42
2023-01-19T12:44:30.943Z,5.49
2023-01-19T12:47:04.386Z,5.53
2023-01-19T12:49:39.653Z,5.56
2023-01-19T12:52:26.971Z,5.44
2023-01-19T12:55:02.104Z,5.41
2023-01-19T12:57:34.370Z,5.16
2023-01-19T13:00:07.138Z,5.03
2023-01-19T13:02:54.529Z,4.99
2023-01-19T13:05:42.253Z,4.96
2023-01-19T13:08:21.726Z,4.81
2023-01-19T13:11:16.601Z,4.83
2023-01-19T13:13:46.662Z,4.80
2023-01-19T13:16:55.058Z,4.83
2023-01-19T13:19:33.810Z,4.84
2023-01-19T13:22:49.723Z,4.91
2023-01-19T13:25:34.077Z,4.88
2023-01-19T13:28:12.405Z,4.84
2023-01-19T13:48:15.481Z,5.03
2023-01-19T13:50:46.025Z,4.79
2023-01-19T13:56:18.245Z,4.73
2023-01-19T13:58:59.452Z,4.57
2023-01-19T14:01:29.520Z,4.41
2023-01-19T14:04:00.813Z,4.33
2023-01-19T14:06:36.216Z,4.32
2023-01-19T14:09:17.110Z,4.28
2023-01-19T14:11:47.701Z,4.23
2023-01-19T14:14:27.355Z,4.24
2023-01-19T14:16:57.033Z,4.39
2023-01-19T14:50:41.499Z,3.94
2023-01-19T14:53:19.175Z,3.95
2023-01-19T14:55:50.750Z,3.97
2023-01-19T14:58:21.856Z,3.91
2023-01-19T15:00:51.332Z,3.99
2023-01-19T15:03:19.896Z,3.94
2023-01-19T15:05:51.450Z,3.83
2023-01-19T15:08:29.237Z,3.75
2023-01-19T15:11:07.362Z,3.82
2023-01-19T15:13:39.476Z,3.72
2023-01-19T15:16:09.846Z,3.74
2023-01-19T15:18:42.446Z,3.71
2023-01-19T15:21:17.112Z,3.73
2023-01-19T15:23:48.957Z,3.67
2023-01-19T15:26:19.895Z,3.65
2023-01-19T15:29:01.222Z,3.68
2023-01-19T15:31:37.628Z,3.55
2023-01-19T15:34:08.959Z,3.49
2023-01-19T15:36:38.745Z,3.41
2023-01-19T15:39:07.052Z,3.39
2023-01-19T15:41:35.469Z,3.41
2023-01-19T15:44:05.500Z,3.39
2023-01-19T15:46:34.140Z,3.45
2023-01-19T15:49:02.425Z,3.36
2023-01-19T15:51:31.615Z,3.32
2023-01-19T15:54:01.444Z,3.31
2023-01-19T15:56:31.515Z,3.28
2023-01-19T15:59:00.165Z,3.24
2023-01-19T16:01:31.743Z,3.18
2023-01-19T16:04:01.778Z,3.18
2023-01-19T16:06:33.525Z,3.09
2023-01-19T16:09:04.046Z,3.07
2023-01-19T16:11:34.391Z,3.09
2023-01-19T16:14:02.729Z,3.11
2023-01-19T16:16:31.063Z,3.09
2023-01-19T16:18:59.769Z,3.14
2023-01-19T16:21:28.651Z,3.14
2023-01-19T16:23:56.985Z,3.17
2023-01-19T16:26:29.982Z,3.15
2023-01-19T16:29:02.755Z,3.16
2023-01-19T16:31:30.935Z,3.14
2023-01-19T16:33:59.006Z,3.07
2023-01-19T16:36:29.531Z,3.04
2023-01-19T16:39:01.115Z,3.07
2023-01-19T16:41:31.093Z,3.04
2023-01-19T16:44:00.478Z,2.95
2023-01-19T16:46:32.651Z,2.89
2023-01-19T16:49:02.125Z,2.93
2023-01-19T16:51:30.806Z,2.83
2023-01-19T16:53:59.405Z,2.80
2023-01-19T16:56:30.457Z,2.79
2023-01-19T16:59:01.165Z,2.81
2023-01-19T17:01:30.525Z,2.81
2023-01-19T17:04:01.321Z,2.77
2023-01-19T17:06:32.382Z,2.76
2023-01-19T17:09:00.919Z,2.70
2023-01-19T17:11:31.912Z,2.75
2023-01-19T17:14:03.401Z,2.74
2023-01-19T17:16:33.178Z,2.73
2023-01-19T17:19:03.531Z,2.59
2023-01-19T17:21:31.966Z,2.51
2023-01-19T17:24:01.161Z,2.32
2023-01-19T17:26:31.336Z,1.99
2023-01-19T17:29:02.163Z,2.12
2023-01-19T17:31:32.474Z,2.13
2023-01-19T17:34:04.762Z,2.07
2023-01-19T17:36:34.773Z,2.08
2023-01-19T17:39:07.100Z,1.99
2023-01-19T17:41:36.760Z,1.95
2023-01-19T17:44:07.829Z,1.79
2023-01-19T17:46:37.629Z,1.79
2023-01-19T17:49:07.077Z,1.72
2023-01-19T17:51:35.763Z,1.75
2023-01-19T17:54:04.441Z,1.70
2023-01-19T17:56:36.978Z,1.65
2023-01-19T17:59:08.179Z,1.64
2023-01-19T18:01:39.908Z,1.68
2023-01-19T18:04:09.458Z,1.66
2023-01-19T18:06:38.107Z,1.72
2023-01-19T18:09:06.969Z,1.73
2023-01-19T18:11:35.508Z,1.74
2023-01-19T18:14:03.793Z,1.75
2023-01-19T18:16:33.554Z,1.74
2023-01-19T18:19:01.932Z,1.74
2023-01-19T18:21:30.651Z,1.70
2023-01-19T18:24:03.397Z,1.80
2023-01-19T18:26:33.167Z,1.78
2023-01-19T18:29:01.469Z,1.85
2023-01-19T18:31:29.739Z,1.79
2023-01-19T18:33:59.296Z,1.88
2023-01-19T18:36:28.011Z,1.69
2023-01-19T18:38:56.302Z,1.76
2023-01-19T18:41:24.611Z,1.71
2023-01-19T18:43:54.683Z,1.67
2023-01-19T18:46:26.064Z,1.64
2023-01-19T18:48:54.294Z,1.66
2023-01-19T18:51:23.717Z,1.68
2023-01-19T18:53:52.065Z,1.65
2023-01-19T18:56:20.063Z,1.68
2023-01-19T18:58:48.117Z,1.69
2023-01-19T19:01:21.749Z,1.59
2023-01-19T19:03:49.631Z,1.61
2023-01-19T19:06:21.013Z,1.68
2023-01-19T19:08:52.652Z,1.71
2023-01-19T19:11:22.669Z,1.77
2023-01-19T19:13:54.326Z,1.83
2023-01-19T19:16:22.485Z,1.85
2023-01-19T19:18:51.010Z,1.85
2023-01-19T19:21:21.332Z,1.84
2023-01-19T19:23:53.342Z,1.88
2023-01-19T19:26:25.456Z,1.90
2023-01-19T19:28:53.568Z,1.87
2023-01-19T19:31:23.379Z,1.86
2023-01-19T19:33:52.198Z,1.89
2023-01-19T19:36:21.236Z,1.86
2023-01-19T19:38:49.809Z,1.79
2023-01-19T19:41:22.656Z,1.84
2023-01-19T19:43:51.194Z,1.79
2023-01-19T19:46:21.243Z,1.72
2023-01-19T19:48:49.660Z,1.75
2023-01-19T19:51:22.579Z,1.74
2023-01-19T19:53:51.906Z,1.52
2023-01-19T19:56:25.592Z,1.40
2023-01-19T19:58:56.032Z,1.18
2023-01-19T20:01:28.588Z,1.12
2023-01-19T20:04:00.108Z,1.17
2023-01-19T20:06:28.696Z,1.12
2023-01-19T20:08:57.690Z,1.08
2023-01-19T20:11:29.094Z,1.11
2023-01-19T20:13:57.406Z,1.07
2023-01-19T20:16:26.074Z,1.06
2023-01-19T20:18:55.269Z,1.06
2023-01-19T20:21:26.322Z,1.14
2023-01-19T20:23:55.271Z,1.21
2023-01-19T20:26:26.982Z,1.21
2023-01-19T20:28:55.384Z,1.28
2023-01-19T20:31:27.056Z,1.30
2023-01-19T20:34:00.862Z,1.24
2023-01-19T20:36:29.010Z,1.27
2023-01-19T20:39:00.504Z,1.26
2023-01-19T20:41:30.027Z,1.19
2023-01-19T20:43:58.046Z,1.20
2023-01-19T20:46:26.168Z,1.24
2023-01-19T20:48:55.194Z,1.17
2023-01-19T20:51:24.339Z,1.20
2023-01-19T20:53:52.537Z,1.20
2023-01-19T20:56:21.001Z,1.22
2023-01-19T20:58:51.779Z,1.17
2023-01-19T21:01:22.447Z,1.24
2023-01-19T21:03:50.819Z,1.22
2023-01-19T21:06:19.864Z,1.12
2023-01-19T21:08:50.274Z,1.12
2023-01-19T21:11:25.067Z,1.08
2023-01-19T21:13:57.905Z,1.03
2023-01-19T21:16:45.644Z,1.00
2023-01-19T21:20:33.493Z,1.07
2023-01-19T21:23:25.778Z,1.02
2023-01-19T22:01:49.409Z,0.82
2023-01-19T22:08:12.187Z,0.71
2023-01-19T22:11:13.021Z,0.79
2023-01-19T22:14:16.321Z,0.73
2023-01-19T22:17:28.834Z,0.80
2023-01-19T22:21:00.240Z,0.79
2023-01-19T22:23:34.546Z,0.74
2023-01-19T22:29:24.911Z,0.75
2023-01-19T22:32:07.173Z,0.75
2023-01-19T22:34:55.728Z,0.73
2023-01-19T22:37:42.643Z,0.75
2023-01-19T22:41:52.602Z,0.73
2023-01-19T22:43:14.111Z,0.72
2023-01-19T22:46:02.802Z,0.75
2023-01-19T22:52:16.409Z,0.68
